Time;durP1;ratioP1;P1;durP2;ratioP2;P2;SDS_P1;SDS_P2;PMS_P1;PMS_P2;Temp;Humidity;BMP_temperature;BMP_pressure;BME280_temperature;BME280_humidity;BME280_pressure;Samples;Min_cycle;Max_cycle;Signal;HPM_P1;HPM_P2
2022/12/14 00:02:09;;;;;;;21.33;16.35;;;;;;;-3.95;100.00;94394.03;5048063;28;24442;-73
2022/12/14 00:04:35;;;;;;;20.35;16.25;;;;;;;-4.02;100.00;94398.44;5042914;28;24431;-73
2022/12/14 00:07:03;;;;;;;25.65;16.42;;;;;;;-4.10;100.00;94389.44;5042852;28;24438;-73
2022/12/14 00:09:29;;;;;;;27.70;16.70;;;;;;;-4.26;100.00;94387.34;5049056;28;24423;-73
2022/12/14 00:11:56;;;;;;;22.60;16.55;;;;;;;-4.32;100.00;94391.72;5041500;28;25020;-74
2022/12/14 00:14:22;;;;;;;20.67;16.05;;;;;;;-4.47;100.00;94393.78;5035116;28;24440;-74
2022/12/14 00:16:49;;;;;;;23.57;16.40;;;;;;;-4.52;100.00;94390.56;5038218;28;24442;-74
2022/12/14 00:19:16;;;;;;;22.00;15.65;;;;;;;-4.49;100.00;94382.06;5040895;28;24498;-74
2022/12/14 00:21:42;;;;;;;27.48;16.70;;;;;;;-4.57;100.00;94377.22;5048376;28;24438;-74
2022/12/14 00:24:10;;;;;;;24.70;16.33;;;;;;;-4.56;100.00;94366.25;5043591;28;24450;-74
2022/12/14 00:26:37;;;;;;;23.30;16.60;;;;;;;-4.55;100.00;94367.91;5040711;28;24977;-72
2022/12/14 00:29:03;;;;;;;28.30;16.65;;;;;;;-4.51;100.00;94353.50;5049677;28;24435;-72
2022/12/14 00:31:31;;;;;;;23.17;17.85;;;;;;;-4.66;100.00;94359.78;5036266;28;24442;-72
2022/12/14 00:33:57;;;;;;;20.58;15.63;;;;;;;-4.52;100.00;94355.19;5048943;28;24446;-73
2022/12/14 00:36:24;;;;;;;29.33;17.88;;;;;;;-4.64;100.00;94363.09;5046753;28;24435;-73
2022/12/14 00:38:50;;;;;;;19.70;15.70;;;;;;;-4.58;100.00;94362.09;5047089;28;24457;-73
2022/12/14 00:41:19;;;;;;;24.92;16.65;;;;;;;-4.65;100.00;94367.31;5048973;28;24442;-73
2022/12/14 00:43:45;;;;;;;26.02;16.98;;;;;;;-4.76;100.00;94366.75;5045589;28;24440;-73
2022/12/14 00:46:12;;;;;;;22.38;16.80;;;;;;;-4.84;100.00;94373.72;5045135;28;24438;-73
2022/12/14 00:48:38;;;;;;;21.20;16.50;;;;;;;-4.78;100.00;94368.53;5049072;28;24553;-73
2022/12/14 00:51:05;;;;;;;23.73;17.00;;;;;;;-4.75;100.00;94373.47;5047883;28;24447;-73
2022/12/14 00:53:32;;;;;;;23.70;16.85;;;;;;;-4.68;100.00;94369.91;5040030;28;24435;-74
2022/12/14 00:56:05;;;;;;;21.90;16.92;;;;;;;-4.66;100.00;94365.66;5044325;28;24443;-74
2022/12/14 00:58:33;;;;;;;23.90;17.73;;;;;;;-4.78;100.00;94370.19;5050409;28;24530;-73
2022/12/14 01:01:00;;;;;;;21.90;16.40;;;;;;;-4.68;100.00;94371.63;5047609;28;24435;-73
2022/12/14 01:03:27;;;;;;;24.85;17.30;;;;;;;-4.63;100.00;94360.53;5048528;28;24435;-74
2022/12/14 01:05:53;;;;;;;23.48;17.08;;;;;;;-4.47;100.00;94355.06;5041767;28;24427;-74
2022/12/14 01:08:20;;;;;;;28.08;17.73;;;;;;;-4.35;100.00;94354.72;5049179;28;24431;-73
2022/12/14 01:10:47;;;;;;;22.52;17.40;;;;;;;-4.36;100.00;94352.25;5048455;28;24446;-73
2022/12/14 01:13:13;;;;;;;24.80;17.80;;;;;;;-4.41;100.00;94358.25;5036249;28;24978;-73
2022/12/14 01:15:41;;;;;;;24.98;16.20;;;;;;;-4.46;100.00;94359.22;5042816;28;24443;-73
2022/12/14 01:18:08;;;;;;;18.90;15.57;;;;;;;-4.48;100.00;94359.28;5044590;28;25074;-73
2022/12/14 01:20:34;;;;;;;24.48;16.80;;;;;;;-4.35;100.00;94349.66;5045890;28;24450;-73
2022/12/14 01:23:01;;;;;;;19.03;16.17;;;;;;;-4.41;100.00;94350.66;5050132;28;24450;-73
2022/12/14 01:25:27;;;;;;;22.45;16.80;;;;;;;-4.41;100.00;94349.84;5043647;28;24441;-73
2022/12/14 01:27:54;;;;;;;22.92;17.05;;;;;;;-4.32;100.00;94356.34;5049451;28;24431;-73
2022/12/14 01:30:20;;;;;;;20.80;16.45;;;;;;;-4.27;100.00;94350.25;5044991;28;25027;-73
2022/12/14 01:32:48;;;;;;;22.15;16.85;;;;;;;-4.46;100.00;94357.53;5041618;28;24442;-73
2022/12/14 01:35:15;;;;;;;24.27;16.17;;;;;;;-4.54;100.00;94353.56;5046114;28;24443;-73
2022/12/14 01:37:41;;;;;;;22.65;16.33;;;;;;;-4.47;100.00;94347.47;5045613;28;24996;-73
2022/12/14 01:40:09;;;;;;;22.90;17.45;;;;;;;-4.44;100.00;94352.44;5038273;28;24447;-73
2022/12/14 01:42:36;;;;;;;20.05;16.88;;;;;;;-4.54;100.00;94351.88;5042507;28;24438;-73
2022/12/14 01:45:03;;;;;;;21.90;16.52;;;;;;;-4.45;100.00;94351.63;5041027;28;24444;-73
2022/12/14 01:47:42;;;;;;;25.70;17.38;;;;;;;-4.41;100.00;94334.69;5111936;27;24990;-71
2022/12/14 01:50:17;;;;;;;19.38;16.35;;;;;;;-4.29;100.00;94315.81;5119020;28;24425;-71
2022/12/14 01:52:46;;;;;;;22.95;17.05;;;;;;;-4.15;100.00;94316.25;5115916;28;24804;-71
2022/12/14 01:55:19;;;;;;;29.02;18.20;;;;;;;-4.14;100.00;94313.66;5100307;28;24460;-71
2022/12/14 01:57:51;;;;;;;22.83;17.45;;;;;;;-4.09;100.00;94321.09;5110193;28;24434;-71
2022/12/14 02:00:18;;;;;;;20.83;17.08;;;;;;;-4.26;100.00;94330.91;5113511;28;24438;-71
2022/12/14 02:02:51;;;;;;;19.80;16.45;;;;;;;-4.19;100.00;94330.69;5108620;28;25005;-71
2022/12/14 02:05:20;;;;;;;22.33;16.77;;;;;;;-4.14;100.00;94328.81;5110622;28;24438;-71
2022/12/14 02:07:49;;;;;;;21.27;16.67;;;;;;;-4.19;100.00;94322.22;5102913;28;24442;-71
2022/12/14 02:10:16;;;;;;;24.15;17.52;;;;;;;-4.02;100.00;94316.69;5113235;27;24440;-71
2022/12/14 02:12:47;;;;;;;22.70;18.10;;;;;;;-4.08;100.00;94315.16;5109974;28;24808;-71
2022/12/14 02:15:14;;;;;;;23.63;17.83;;;;;;;-4.06;100.00;94310.91;5105639;28;24434;-71
2022/12/14 02:17:42;;;;;;;23.08;17.65;;;;;;;-4.05;100.00;94316.78;5103069;27;24857;-71
2022/12/14 02:20:13;;;;;;;24.42;17.10;;;;;;;-4.06;100.00;94320.19;5110841;28;24426;-71
2022/12/14 02:23:27;;;;;;;21.75;16.42;;;;;;;-4.04;100.00;94313.38;5101870;27;24445;-71
2022/12/14 02:26:16;;;;;;;23.27;17.13;;;;;;;-4.01;100.00;94313.28;5104464;28;24467;-71
2022/12/14 02:29:19;;;;;;;22.38;17.17;;;;;;;-3.92;100.00;94315.56;5106362;28;24438;-70
2022/12/14 02:31:57;;;;;;;26.48;17.98;;;;;;;-3.98;100.00;94313.19;5098538;28;24433;-71
2022/12/14 02:34:34;;;;;;;28.17;17.88;;;;;;;-3.97;100.00;94308.13;5111809;28;24452;-71
2022/12/14 02:37:07;;;;;;;24.30;17.38;;;;;;;-3.98;100.00;94318.25;5102384;27;24431;-71
2022/12/14 02:39:41;;;;;;;23.00;17.52;;;;;;;-3.96;100.00;94309.75;5115578;28;24993;-71
2022/12/14 02:42:10;;;;;;;21.55;16.70;;;;;;;-3.94;100.00;94300.41;5106154;27;24433;-71
2022/12/14 02:44:48;;;;;;;23.75;18.05;;;;;;;-3.91;100.00;94294.44;5114034;28;25208;-71
2022/12/14 02:47:23;;;;;;;28.10;18.08;;;;;;;-4.10;100.00;94300.94;5122922;27;25105;-71
2022/12/14 02:50:02;;;;;;;23.40;17.77;;;;;;;-4.17;100.00;94298.56;5129250;27;24989;-71
2022/12/14 02:52:37;;;;;;;21.65;17.95;;;;;;;-4.11;100.00;94289.16;5124303;27;25008;-71
2022/12/14 02:55:09;;;;;;;25.17;18.90;;;;;;;-4.03;100.00;94275.41;5119277;27;24843;-71
2022/12/14 02:57:40;;;;;;;21.15;16.77;;;;;;;-4.02;100.00;94271.19;5123797;27;24435;-71
2022/12/14 03:00:08;;;;;;;25.02;18.30;;;;;;;-4.04;100.00;94267.84;5123005;27;24443;-71
2022/12/14 03:02:39;;;;;;;24.63;17.98;;;;;;;-4.08;100.00;94276.41;5116064;27;24482;-71
2022/12/14 03:05:06;;;;;;;26.42;17.75;;;;;;;-4.13;100.00;94269.78;5109620;27;24429;-71
2022/12/14 03:07:39;;;;;;;23.77;18.60;;;;;;;-4.20;100.00;94282.66;5115607;27;24454;-71
2022/12/14 03:10:16;;;;;;;24.83;18.30;;;;;;;-4.23;100.00;94273.47;5123880;27;24483;-71
2022/12/14 03:12:48;;;;;;;25.70;18.70;;;;;;;-4.30;100.00;94272.03;5118792;27;24795;-71
2022/12/14 03:15:18;;;;;;;25.08;18.52;;;;;;;-4.28;100.00;94274.50;5115754;27;24455;-71
2022/12/14 03:17:51;;;;;;;26.85;19.45;;;;;;;-4.35;100.00;94273.84;5107466;27;24463;-71
2022/12/14 03:20:20;;;;;;;23.90;18.27;;;;;;;-4.30;100.00;94282.13;5121712;27;24447;-71
2022/12/14 03:22:53;;;;;;;28.42;18.50;;;;;;;-4.15;100.00;94276.63;5109147;27;24438;-71
2022/12/14 03:25:24;;;;;;;24.08;19.60;;;;;;;-4.23;100.00;94270.94;5110568;27;24433;-71
2022/12/14 03:27:55;;;;;;;26.40;19.60;;;;;;;-4.15;100.00;94263.16;5111223;27;24540;-71
2022/12/14 03:30:22;;;;;;;26.25;19.27;;;;;;;-4.26;100.00;94258.41;5121958;27;24436;-71
2022/12/14 03:32:53;;;;;;;26.88;19.77;;;;;;;-4.28;100.00;94259.31;5109761;27;24437;-71
2022/12/14 03:35:25;;;;;;;30.95;20.35;;;;;;;-4.28;100.00;94252.56;5116767;27;24437;-71
2022/12/14 03:37:57;;;;;;;27.20;20.08;;;;;;;-4.29;100.00;94245.03;5117396;27;24436;-71
2022/12/14 03:40:34;;;;;;;27.33;20.08;;;;;;;-4.39;100.00;94250.34;5120973;27;24998;-71
2022/12/14 03:43:05;;;;;;;29.50;20.27;;;;;;;-4.35;100.00;94253.63;5109751;27;25022;-71
2022/12/14 03:45:43;;;;;;;27.92;20.35;;;;;;;-4.36;100.00;94246.09;5117943;27;24433;-71
2022/12/14 03:48:20;;;;;;;28.67;20.95;;;;;;;-4.37;100.00;94250.31;5122592;27;24495;-71
2022/12/14 03:50:52;;;;;;;22.75;19.02;;;;;;;-4.33;100.00;94235.91;5110707;27;24921;-71
2022/12/14 03:53:28;;;;;;;25.27;19.75;;;;;;;-4.31;100.00;94229.06;5113335;27;25005;-71
2022/12/14 03:56:03;;;;;;;25.25;19.60;;;;;;;-4.30;100.00;94224.00;5115549;27;24974;-71
2022/12/14 03:58:38;;;;;;;25.17;19.48;;;;;;;-4.24;100.00;94226.31;5115905;27;24448;-71
2022/12/14 04:01:10;;;;;;;23.92;18.92;;;;;;;-4.14;100.00;94219.28;5111259;27;25005;-71
2022/12/14 04:03:47;;;;;;;25.23;19.75;;;;;;;-4.17;100.00;94212.63;5115666;27;24529;-71
2022/12/14 04:06:22;;;;;;;25.83;19.65;;;;;;;-4.20;100.00;94214.41;5120356;27;24449;-71
2022/12/14 04:08:58;;;;;;;27.33;19.60;;;;;;;-4.10;100.00;94212.44;5112458;27;24800;-71
2022/12/14 04:19:55;;;;;;;27.27;20.77;;;;;;;-4.15;100.00;94187.31;5104962;27;25095;-71
2022/12/14 04:22:25;;;;;;;28.25;20.65;;;;;;;-4.18;100.00;94189.94;5114292;27;24437;-71
2022/12/14 04:27:46;;;;;;;28.92;19.83;;;;;;;-4.16;100.00;94180.56;5105011;27;24597;-71
2022/12/14 04:30:13;;;;;;;28.95;20.30;;;;;;;-4.15;100.00;94189.84;5117635;27;24985;-71
2022/12/14 04:32:44;;;;;;;28.65;20.35;;;;;;;-4.17;100.00;94182.28;5103739;27;24435;-71
2022/12/14 04:35:16;;;;;;;25.38;19.60;;;;;;;-4.11;100.00;94176.22;5093136;28;24445;-71
2022/12/14 04:37:45;;;;;;;29.58;19.98;;;;;;;-4.08;100.00;94181.16;5102248;28;24994;-71
2022/12/14 04:40:16;;;;;;;23.85;19.48;;;;;;;-4.07;100.00;94175.25;5101864;28;24430;-71
2022/12/14 04:42:49;;;;;;;25.85;20.17;;;;;;;-4.01;100.00;94171.69;5113339;27;24460;-70
2022/12/14 04:45:20;;;;;;;29.80;21.30;;;;;;;-4.06;100.00;94171.84;5112993;27;24439;-71
2022/12/14 04:47:55;;;;;;;24.15;20.05;;;;;;;-4.11;100.00;94158.53;5127362;27;24807;-71
2022/12/14 04:50:28;;;;;;;25.00;19.85;;;;;;;-4.08;100.00;94160.09;5115470;27;24437;-71
2022/12/14 04:53:00;;;;;;;26.25;20.60;;;;;;;-4.09;100.00;94166.03;5121678;27;24436;-71
2022/12/14 04:55:32;;;;;;;24.47;20.10;;;;;;;-4.16;100.00;94156.13;5118555;27;24435;-71
2022/12/14 04:58:04;;;;;;;30.27;21.97;;;;;;;-4.19;100.00;94155.38;5119444;27;24425;-71
2022/12/14 05:00:35;;;;;;;32.05;23.45;;;;;;;-4.17;100.00;94156.19;5110228;27;24437;-71
2022/12/14 05:03:17;;;;;;;29.40;22.30;;;;;;;-4.13;100.00;94148.44;5107315;27;24896;-71
2022/12/14 05:05:58;;;;;;;25.85;21.65;;;;;;;-4.16;100.00;94153.59;5101018;28;24449;-71
2022/12/14 05:08:47;;;;;;;31.85;22.23;;;;;;;-4.16;100.00;94158.66;5106699;28;24804;-71
2022/12/14 05:11:24;;;;;;;25.38;21.63;;;;;;;-4.14;100.00;94153.56;5116565;27;24487;-71
2022/12/14 05:13:50;;;;;;;27.00;21.00;;;;;;;-4.03;100.00;94146.47;5101859;27;24437;-71
2022/12/14 05:16:18;;;;;;;31.60;23.08;;;;;;;-4.06;100.00;94133.09;5120208;27;24440;-71
2022/12/14 05:18:45;;;;;;;25.90;21.13;;;;;;;-4.00;100.00;94138.78;5120395;27;24436;-72
2022/12/14 05:21:45;;;;;;;28.00;22.05;;;;;;;-4.09;100.00;94133.19;5113802;27;24468;-71
2022/12/14 05:24:03;;;;;;;28.48;20.80;;;;;;;-3.98;100.00;94138.72;5104180;27;24469;-71
2022/12/14 05:26:30;;;;;;;25.07;21.57;;;;;;;-3.95;100.00;94125.97;5119490;27;24452;-71
2022/12/14 05:28:57;;;;;;;28.55;22.17;;;;;;;-3.98;100.00;94131.13;5104309;27;24760;-70
2022/12/14 05:31:25;;;;;;;27.30;22.63;;;;;;;-3.96;100.00;94129.38;5100842;28;24437;-70
2022/12/14 05:33:51;;;;;;;29.63;24.13;;;;;;;-4.01;100.00;94118.56;5101780;28;24434;-70
2022/12/14 05:36:19;;;;;;;30.30;24.85;;;;;;;-3.99;100.00;94121.91;5103538;27;24440;-71
2022/12/14 05:38:46;;;;;;;27.02;22.65;;;;;;;-3.92;100.00;94119.13;5114789;27;24841;-71
2022/12/14 05:41:12;;;;;;;28.27;24.33;;;;;;;-3.95;100.00;94123.44;5111043;27;24448;-71
2022/12/14 05:43:39;;;;;;;32.38;23.88;;;;;;;-3.98;100.00;94124.38;5115636;28;24448;-71
2022/12/14 05:46:05;;;;;;;33.55;24.33;;;;;;;-3.94;100.00;94118.31;5116736;28;24983;-71
2022/12/14 05:48:33;;;;;;;27.27;23.65;;;;;;;-3.96;100.00;94111.69;5114070;28;24576;-70
2022/12/14 05:51:05;;;;;;;32.80;23.98;;;;;;;-3.94;100.00;94115.78;5121347;28;24425;-71
2022/12/14 05:53:33;;;;;;;30.30;24.40;;;;;;;-3.96;100.00;94112.50;5105072;28;24438;-71
2022/12/14 05:55:59;;;;;;;35.17;24.27;;;;;;;-3.95;100.00;94106.56;5115693;28;24528;-71
2022/12/14 05:58:26;;;;;;;27.75;22.65;;;;;;;-3.85;100.00;94109.63;5110103;28;24460;-71
2022/12/14 06:00:52;;;;;;;30.52;23.23;;;;;;;-3.82;100.00;94106.13;5112818;28;24437;-70
2022/12/14 06:03:19;;;;;;;30.52;25.35;;;;;;;-3.79;100.00;94106.03;5115464;28;24445;-71
2022/12/14 06:05:46;;;;;;;30.02;24.17;;;;;;;-3.70;100.00;94103.22;5103087;28;25008;-71
2022/12/14 06:08:12;;;;;;;32.22;24.48;;;;;;;-3.76;100.00;94099.19;5099975;28;24550;-74
2022/12/14 06:10:40;;;;;;;29.10;23.77;;;;;;;-3.76;100.00;94091.59;5101896;28;24472;-72
2022/12/14 06:13:07;;;;;;;31.13;24.48;;;;;;;-3.76;100.00;94088.25;5114370;28;24444;-72
2022/12/14 06:15:33;;;;;;;29.38;23.35;;;;;;;-3.74;100.00;94094.91;5114205;28;24520;-71
2022/12/14 06:18:00;;;;;;;29.20;23.77;;;;;;;-3.70;100.00;94091.38;5116465;28;24439;-71
2022/12/14 06:20:27;;;;;;;29.23;24.83;;;;;;;-3.75;100.00;94088.16;5107782;28;24433;-72
2022/12/14 06:22:54;;;;;;;33.70;24.50;;;;;;;-3.72;100.00;94085.53;5112379;28;24457;-72
2022/12/14 06:25:21;;;;;;;31.88;24.65;;;;;;;-3.78;100.00;94085.78;5103708;27;25061;-72
2022/12/14 06:27:53;;;;;;;32.10;24.77;;;;;;;-3.85;100.00;94075.91;5111190;28;24500;-72
2022/12/14 06:30:19;;;;;;;35.67;25.23;;;;;;;-3.75;100.00;94077.22;5110298;28;24464;-72
2022/12/14 06:32:46;;;;;;;32.95;26.30;;;;;;;-3.78;100.00;94078.19;5115224;27;24439;-72
2022/12/14 06:35:12;;;;;;;33.67;24.10;;;;;;;-3.66;100.00;94080.28;5114880;27;24429;-73
2022/12/14 06:37:39;;;;;;;30.73;24.92;;;;;;;-3.72;100.00;94089.78;5111108;27;24452;-72
2022/12/14 06:40:07;;;;;;;33.83;26.02;;;;;;;-3.72;100.00;94083.00;5115832;27;24437;-72
2022/12/14 06:42:33;;;;;;;31.48;25.20;;;;;;;-3.68;100.00;94076.13;5104650;27;24487;-73
2022/12/14 06:45:01;;;;;;;32.83;26.15;;;;;;;-3.72;100.00;94060.25;5099933;27;24445;-73
2022/12/14 06:47:28;;;;;;;33.78;27.05;;;;;;;-3.70;100.00;94055.16;5123242;27;24807;-72
2022/12/14 06:49:54;;;;;;;39.13;28.58;;;;;;;-3.72;100.00;94050.13;5112113;27;24549;-72
2022/12/14 06:52:21;;;;;;;34.58;27.85;;;;;;;-3.72;100.00;94042.53;5121647;27;24437;-73
2022/12/14 06:54:47;;;;;;;35.53;29.10;;;;;;;-3.70;100.00;94045.84;5119067;27;24930;-72
2022/12/14 06:57:14;;;;;;;35.65;30.30;;;;;;;-3.74;100.00;94051.06;5113772;27;24433;-72
2022/12/14 06:59:40;;;;;;;35.65;28.40;;;;;;;-3.71;100.00;94046.72;5100805;27;24908;-72
2022/12/14 07:02:09;;;;;;;37.83;30.33;;;;;;;-3.68;100.00;94049.13;5108303;27;24558;-72
2022/12/14 07:04:36;;;;;;;32.92;28.98;;;;;;;-3.65;100.00;94046.50;5118342;27;24437;-72
2022/12/14 07:07:02;;;;;;;35.45;29.42;;;;;;;-3.62;100.00;94037.97;5122963;27;25021;-72
2022/12/14 07:09:29;;;;;;;39.00;29.45;;;;;;;-3.64;100.00;94032.13;5119794;27;24429;-72
2022/12/14 07:11:55;;;;;;;38.35;29.00;;;;;;;-3.63;100.00;94021.16;5122441;27;24439;-72
2022/12/14 07:14:22;;;;;;;37.83;29.27;;;;;;;-3.64;100.00;94016.97;5114939;27;24437;-74
2022/12/14 07:16:51;;;;;;;41.30;30.35;;;;;;;-3.69;100.00;94018.84;5120517;27;24436;-72
2022/12/14 07:19:19;;;;;;;37.42;29.67;;;;;;;-3.53;100.00;94017.41;5114093;27;24486;-73
2022/12/14 07:21:45;;;;;;;39.28;29.17;;;;;;;-3.57;100.00;94020.09;5109771;27;24436;-74
2022/12/14 07:24:12;;;;;;;40.38;30.10;;;;;;;-3.61;100.00;94026.16;5123117;27;24479;-73
2022/12/14 07:26:38;;;;;;;41.85;30.63;;;;;;;-3.60;100.00;94020.22;5125235;27;24444;-73
2022/12/14 07:29:05;;;;;;;37.25;30.73;;;;;;;-3.65;100.00;94023.72;5114363;27;24449;-74
2022/12/14 07:31:32;;;;;;;37.78;30.23;;;;;;;-3.55;100.00;94024.22;5120571;27;24438;-73
2022/12/14 07:33:59;;;;;;;43.33;32.47;;;;;;;-3.41;100.00;94031.34;5111698;27;24807;-74
2022/12/14 07:36:29;;;;;;;39.42;31.48;;;;;;;-3.33;100.00;94023.44;5124809;27;24437;-74
2022/12/14 07:38:56;;;;;;;38.60;31.73;;;;;;;-3.31;100.00;94021.66;5113263;27;24780;-73
2022/12/14 07:41:25;;;;;;;40.15;31.50;;;;;;;-3.27;100.00;94011.38;5113416;27;24441;-74
2022/12/14 07:43:53;;;;;;;40.30;32.50;;;;;;;-3.39;100.00;94008.47;5106977;27;25021;-73
2022/12/14 07:46:22;;;;;;;43.13;32.10;;;;;;;-3.40;100.00;94012.72;5113824;27;24990;-73
2022/12/14 07:48:51;;;;;;;41.60;31.33;;;;;;;-3.37;100.00;94014.28;5112797;27;24459;-74
2022/12/14 07:51:21;;;;;;;40.28;31.20;;;;;;;-3.34;100.00;94015.00;5119045;27;24443;-73
2022/12/14 07:53:50;;;;;;;41.55;30.40;;;;;;;-3.41;100.00;94003.50;5107592;27;24518;-74
2022/12/14 07:56:19;;;;;;;38.60;31.20;;;;;;;-3.38;100.00;94010.94;5097847;27;24479;-74
2022/12/14 07:58:46;;;;;;;37.30;31.42;;;;;;;-3.37;100.00;94005.03;5098190;27;24537;-73
2022/12/14 08:01:15;;;;;;;42.13;30.97;;;;;;;-3.33;100.00;94009.09;5108533;27;24529;-73
2022/12/14 08:03:44;;;;;;;42.00;31.98;;;;;;;-3.36;100.00;94004.13;5107505;27;24435;-73
2022/12/14 08:06:13;;;;;;;36.38;30.08;;;;;;;-3.28;100.00;93998.78;5112640;27;24432;-74
2022/12/14 08:08:40;;;;;;;41.00;30.87;;;;;;;-3.20;100.00;93999.31;5109049;27;24449;-74
2022/12/14 08:11:09;;;;;;;43.33;30.80;;;;;;;-3.22;100.00;94001.09;5119872;27;24993;-74
2022/12/14 08:13:37;;;;;;;41.65;30.30;;;;;;;-3.19;100.00;94000.94;5115872;27;24988;-74
2022/12/14 08:16:05;;;;;;;38.13;30.58;;;;;;;-3.11;100.00;94006.56;5105587;27;24529;-74
2022/12/14 08:18:32;;;;;;;44.83;30.83;;;;;;;-3.06;100.00;94001.31;5103059;27;24436;-74
2022/12/14 08:20:59;;;;;;;34.90;29.70;;;;;;;-2.99;100.00;94002.75;5117591;27;24485;-73
2022/12/14 08:23:26;;;;;;;43.90;31.17;;;;;;;-3.03;100.00;94008.81;5102745;27;24469;-73
2022/12/14 08:25:54;;;;;;;41.33;29.93;;;;;;;-3.01;100.00;94009.56;5107179;27;24438;-73
2022/12/14 08:28:22;;;;;;;40.67;30.05;;;;;;;-2.94;100.00;94013.50;5111701;27;24502;-73
2022/12/14 08:30:49;;;;;;;41.60;30.20;;;;;;;-2.98;100.00;94001.84;5112931;27;24440;-73
2022/12/14 08:33:16;;;;;;;37.88;30.15;;;;;;;-2.95;100.00;93992.41;5110991;27;24449;-73
2022/12/14 08:35:42;;;;;;;44.90;31.60;;;;;;;-2.75;100.00;93990.81;5103097;27;24437;-74
2022/12/14 08:38:09;;;;;;;38.15;30.40;;;;;;;-2.90;100.00;93993.94;5116962;27;24493;-74
2022/12/14 08:40:37;;;;;;;42.15;31.90;;;;;;;-2.87;100.00;93991.28;5114263;27;24454;-74
2022/12/14 08:43:05;;;;;;;40.15;31.40;;;;;;;-2.81;100.00;93984.28;5121267;27;24838;-75
2022/12/14 08:45:33;;;;;;;39.38;30.75;;;;;;;-2.77;100.00;93983.28;5111542;27;24452;-74
2022/12/14 08:48:00;;;;;;;44.15;30.85;;;;;;;-2.65;100.00;93976.88;5118220;27;24442;-75
2022/12/14 08:50:28;;;;;;;40.78;30.35;;;;;;;-2.64;100.00;93977.72;5109330;27;24468;-74
2022/12/14 08:52:54;;;;;;;39.33;31.33;;;;;;;-2.66;100.00;93977.78;5107429;27;24449;-74
2022/12/14 08:55:22;;;;;;;36.38;30.10;;;;;;;-2.62;100.00;93981.84;5120410;27;24448;-73
2022/12/14 08:57:49;;;;;;;41.15;29.60;;;;;;;-2.54;100.00;93976.44;5112582;27;24437;-73
2022/12/14 09:00:16;;;;;;;34.17;29.45;;;;;;;-2.53;100.00;93978.09;5125550;27;24453;-73
2022/12/14 09:02:45;;;;;;;39.85;31.10;;;;;;;-2.52;100.00;93975.50;5114174;27;24812;-73
2022/12/14 09:05:11;;;;;;;37.08;29.15;;;;;;;-2.47;100.00;93978.69;5120443;27;24436;-73
2022/12/14 09:07:38;;;;;;;34.45;28.00;;;;;;;-2.45;100.00;93981.13;5117075;27;24820;-73
2022/12/14 09:10:06;;;;;;;39.47;30.35;;;;;;;-2.39;100.00;93983.44;5110611;27;24429;-72
2022/12/14 09:12:34;;;;;;;40.22;30.17;;;;;;;-2.34;100.00;93978.16;5114579;27;24490;-72
2022/12/14 09:15:00;;;;;;;42.80;30.77;;;;;;;-2.32;100.00;93978.94;5118284;27;24441;-73
2022/12/14 09:17:27;;;;;;;38.05;30.15;;;;;;;-2.35;100.00;93972.28;5120097;27;24886;-72
2022/12/14 09:19:56;;;;;;;38.35;30.38;;;;;;;-2.32;100.00;93977.22;5109477;27;24437;-72
2022/12/14 09:22:23;;;;;;;41.93;30.77;;;;;;;-2.32;100.00;93964.53;5109514;27;24589;-73
2022/12/14 09:24:51;;;;;;;35.90;31.77;;;;;;;-2.30;100.00;93965.31;5107109;27;24440;-73
2022/12/14 09:27:18;;;;;;;32.23;28.73;;;;;;;-2.20;100.00;93965.72;5120575;27;24445;-73
2022/12/14 09:29:44;;;;;;;43.95;31.48;;;;;;;-2.11;100.00;93978.03;5101412;27;24541;-73
2022/12/14 09:32:11;;;;;;;41.80;32.15;;;;;;;-2.14;100.00;93978.16;5113231;27;24445;-74
2022/12/14 09:34:37;;;;;;;37.25;29.98;;;;;;;-2.04;100.00;93976.88;5102223;28;24439;-74
2022/12/14 09:37:06;;;;;;;43.20;32.33;;;;;;;-2.09;100.00;93978.78;5116821;28;24827;-74
2022/12/14 09:39:34;;;;;;;38.35;31.17;;;;;;;-2.09;100.00;93980.50;5114304;27;24426;-74
2022/12/14 09:42:13;;;;;;;36.85;30.50;;;;;;;-2.10;100.00;93982.22;5100573;27;24529;-73
2022/12/14 09:44:53;;;;;;;40.40;30.52;;;;;;;-2.07;100.00;93973.66;5113932;27;24443;-72
2022/12/14 09:47:24;;;;;;;37.10;29.33;;;;;;;-2.09;100.00;93980.50;5101475;27;24857;-72
2022/12/14 09:49:54;;;;;;;43.47;31.87;;;;;;;-2.09;100.00;93975.41;5115719;28;24459;-73
2022/12/14 09:52:29;;;;;;;37.95;31.25;;;;;;;-2.04;100.00;93983.66;5115185;28;24433;-73
2022/12/14 09:54:58;;;;;;;40.30;32.08;;;;;;;-2.03;100.00;93985.31;5108384;28;24433;-74
2022/12/14 09:57:33;;;;;;;40.83;31.67;;;;;;;-1.98;100.00;93991.00;5119097;28;24433;-74
2022/12/14 10:00:00;;;;;;;38.20;31.27;;;;;;;-1.92;100.00;93978.06;5098541;28;24426;-72
2022/12/14 10:02:37;;;;;;;38.50;30.58;;;;;;;-1.86;100.00;93971.91;5100495;28;24448;-71
2022/12/14 10:05:19;;;;;;;39.63;30.80;;;;;;;-1.88;100.00;93964.34;5099760;28;24433;-72
2022/12/14 10:07:55;;;;;;;39.65;31.77;;;;;;;-1.89;100.00;93960.19;5109308;27;24440;-72
2022/12/14 10:10:28;;;;;;;38.00;32.17;;;;;;;-1.83;100.00;93959.91;5119323;27;24445;-72
2022/12/14 10:13:04;;;;;;;37.35;31.83;;;;;;;-1.80;100.00;93957.22;5121236;27;24455;-72
2022/12/14 10:15:39;;;;;;;39.10;31.13;;;;;;;-1.80;100.00;93959.75;5118778;27;24437;-73
2022/12/14 10:18:30;;;;;;;33.47;29.27;;;;;;;-1.78;100.00;93955.47;5123034;27;24475;-73
2022/12/14 10:21:04;;;;;;;38.45;29.70;;;;;;;-1.74;100.00;93954.44;5120045;27;24441;-71
2022/12/14 10:23:33;;;;;;;36.55;30.33;;;;;;;-1.71;100.00;93953.44;5122516;27;24440;-72
2022/12/14 10:26:06;;;;;;;33.17;29.57;;;;;;;-1.72;100.00;93950.09;5119501;27;24429;-72
2022/12/14 10:28:42;;;;;;;33.13;29.50;;;;;;;-1.68;100.00;93947.44;5115951;27;24460;-74
2022/12/14 10:31:14;;;;;;;38.08;32.47;;;;;;;-1.67;100.00;93944.81;5105834;27;24465;-72
2022/12/14 10:33:43;;;;;;;42.83;30.30;;;;;;;-1.62;100.00;93957.31;5112126;27;24433;-72
2022/12/14 10:36:19;;;;;;;42.00;34.30;;;;;;;-1.58;100.00;93946.94;5108626;27;24429;-73
2022/12/14 10:38:55;;;;;;;41.65;32.45;;;;;;;-1.52;100.00;93944.16;5111774;27;25016;-72
2022/12/14 10:41:33;;;;;;;34.55;29.90;;;;;;;-1.50;100.00;93949.13;5118161;27;24430;-72
2022/12/14 10:44:08;;;;;;;35.35;30.23;;;;;;;-1.53;100.00;93945.00;5124167;27;24441;-73
2022/12/14 10:46:43;;;;;;;34.40;28.75;;;;;;;-1.47;100.00;93951.53;5115533;27;24440;-72
2022/12/14 10:49:15;;;;;;;37.05;29.38;;;;;;;-1.44;100.00;93948.06;5115662;27;24453;-72
2022/12/14 10:51:46;;;;;;;33.65;28.17;;;;;;;-1.39;100.00;93946.94;5118653;27;24644;-72
2022/12/14 10:54:25;;;;;;;38.97;31.50;;;;;;;-1.42;100.00;93951.34;5119862;27;24986;-72
2022/12/14 10:56:51;;;;;;;34.63;29.02;;;;;;;-1.35;100.00;93945.09;5115386;27;24440;-72
2022/12/14 10:59:27;;;;;;;38.38;30.00;;;;;;;-1.32;100.00;93945.75;5116745;27;24469;-73
2022/12/14 11:02:00;;;;;;;33.58;29.95;;;;;;;-1.32;100.00;93945.75;5115013;27;24440;-72
2022/12/14 11:04:30;;;;;;;33.30;29.37;;;;;;;-1.30;100.00;93955.84;5105646;27;25004;-71
2022/12/14 11:06:58;;;;;;;31.92;27.50;;;;;;;-1.27;100.00;93953.97;5102311;28;25205;-74
2022/12/14 11:09:27;;;;;;;37.70;30.75;;;;;;;-1.33;100.00;93954.28;5107066;27;25017;-73
2022/12/14 11:12:04;;;;;;;33.50;28.88;;;;;;;-1.30;100.00;93951.59;5098610;27;24438;-72
2022/12/14 11:14:32;;;;;;;35.55;30.25;;;;;;;-1.33;100.00;93950.94;5103717;27;24792;-73
2022/12/14 11:16:58;;;;;;;38.13;30.98;;;;;;;-1.23;100.00;93942.78;5106180;27;24994;-73
2022/12/14 11:19:27;;;;;;;43.25;32.60;;;;;;;-1.29;100.00;93953.25;5117861;27;24435;-73
2022/12/14 11:22:07;;;;;;;36.43;30.37;;;;;;;-1.27;100.00;93943.00;5102136;27;24429;-71
2022/12/14 11:24:43;;;;;;;37.73;29.83;;;;;;;-1.24;100.00;93945.41;5104854;27;24553;-71
2022/12/14 11:27:11;;;;;;;40.22;35.30;;;;;;;-1.25;100.00;93941.22;5111885;27;24440;-72
2022/12/14 11:29:39;;;;;;;37.50;33.00;;;;;;;-1.17;100.00;93941.69;5105090;28;24453;-73
2022/12/14 11:32:07;;;;;;;35.35;31.02;;;;;;;-1.15;100.00;93931.44;5098548;27;24446;-73
2022/12/14 11:34:37;;;;;;;39.90;30.15;;;;;;;-1.05;100.00;93937.75;5098835;28;24508;-73